Havant, United Kingdom
Current Conditions -  °F | °C
As of 12:50 PM on Saturday 20 Dec 2014 (Local Time) from EGHI Reporting Station
Scattered Clouds Scattered Clouds  
Wind Chill: 44°   Ceiling: Unl
Heat Index: 48°   Visibility: 6mi
Dew Point: 37°   Wind: 10mph
Humidity: 66%   Direction: 280°W
Pressure: 30.36"   Gusts: NA
Location:  50.86°N, 0.99°W
Report Text: EGHI 201250Z 28009KT 250V350 9999 SCT047 09/03 Q1028
Loading
Personal Weather Stations






























Interactive Weather Map New forecast layout! Learn more

10-Day Weather Forecast

Advertisements
Track Severe Weather on mobile